createdAt,value
2022-11-09T00:01:05.545Z,12.36
2022-11-09T00:03:37.570Z,12.35
2022-11-09T00:06:11.992Z,12.35
2022-11-09T00:08:42.887Z,12.45
2022-11-09T00:11:15.056Z,12.38
2022-11-09T00:13:49.447Z,12.29
2022-11-09T00:16:23.899Z,12.18
2022-11-09T00:18:56.182Z,12.31
2022-11-09T00:21:28.309Z,12.30
2022-11-09T00:24:00.932Z,12.19
2022-11-09T00:26:32.934Z,12.21
2022-11-09T00:29:04.871Z,12.24
2022-11-09T00:31:37.306Z,12.33
2022-11-09T00:34:10.654Z,12.36
2022-11-09T00:36:43.124Z,12.34
2022-11-09T00:39:15.429Z,12.32
2022-11-09T00:41:47.664Z,12.29
2022-11-09T00:44:19.891Z,12.33
2022-11-09T00:46:52.001Z,12.26
2022-11-09T00:49:24.594Z,12.23
2022-11-09T00:51:57.401Z,12.26
2022-11-09T00:54:29.407Z,12.29
2022-11-09T00:57:01.462Z,12.20
2022-11-09T00:59:34.566Z,12.14
2022-11-09T01:02:06.760Z,12.22
2022-11-09T01:04:39.865Z,12.27
2022-11-09T01:07:12.173Z,12.21
2022-11-09T01:09:44.700Z,12.29
2022-11-09T01:12:16.832Z,12.33
2022-11-09T01:14:48.820Z,12.37
2022-11-09T01:17:21.281Z,12.34
2022-11-09T01:19:53.240Z,12.29
2022-11-09T01:22:27.750Z,12.27
2022-11-09T01:25:00.537Z,12.18
2022-11-09T01:27:33.517Z,12.26
2022-11-09T01:30:05.936Z,12.30
2022-11-09T01:32:38.030Z,12.31
2022-11-09T01:35:11.809Z,12.31
2022-11-09T01:37:43.838Z,12.33
2022-11-09T01:40:16.351Z,12.29
2022-11-09T01:42:48.993Z,12.17
2022-11-09T01:45:30.597Z,12.17
2022-11-09T01:48:07.513Z,12.11
2022-11-09T01:50:45.351Z,12.08
2022-11-09T01:53:21.127Z,12.09
2022-11-09T01:55:57.684Z,12.02
2022-11-09T01:58:33.888Z,12.08
2022-11-09T02:01:11.189Z,12.09
2022-11-09T02:03:48.098Z,12.15
2022-11-09T02:06:24.295Z,12.16
2022-11-09T02:09:00.899Z,12.08
2022-11-09T02:11:33.797Z,12.11
2022-11-09T02:14:07.156Z,12.11
2022-11-09T02:16:40.054Z,12.03
2022-11-09T02:19:12.583Z,12.12
2022-11-09T02:21:44.754Z,12.19
2022-11-09T02:24:16.949Z,12.12
2022-11-09T02:26:51.971Z,12.15
2022-11-09T02:29:29.857Z,12.17
2022-11-09T02:32:04.856Z,12.18
2022-11-09T02:34:36.868Z,12.17
2022-11-09T02:37:09.615Z,12.16
2022-11-09T02:39:42.442Z,12.03
2022-11-09T02:42:21.451Z,12.10
2022-11-09T02:44:59.123Z,12.00
2022-11-09T02:47:31.639Z,12.08
2022-11-09T02:50:03.696Z,12.09
2022-11-09T02:52:35.863Z,12.14
2022-11-09T02:55:09.084Z,12.04
2022-11-09T02:57:41.185Z,12.11
2022-11-09T03:00:15.182Z,12.06
2022-11-09T03:02:47.847Z,12.05
2022-11-09T03:05:20.610Z,12.09
2022-11-09T03:07:52.796Z,12.17
2022-11-09T03:10:24.962Z,12.15
2022-11-09T03:12:57.731Z,12.19
2022-11-09T03:15:29.948Z,12.26
2022-11-09T03:18:01.910Z,12.20
2022-11-09T03:20:34.332Z,12.22
2022-11-09T03:23:07.739Z,12.26
2022-11-09T03:25:40.027Z,12.26
2022-11-09T03:28:12.049Z,12.19
2022-11-09T03:30:44.947Z,12.19
2022-11-09T03:33:17.548Z,12.25
2022-11-09T03:35:51.443Z,12.17
2022-11-09T03:38:24.035Z,12.06
2022-11-09T03:40:57.462Z,12.13
2022-11-09T03:43:31.193Z,12.05
2022-11-09T03:46:03.371Z,12.10
2022-11-09T03:48:35.415Z,12.11
2022-11-09T03:51:07.615Z,12.18
2022-11-09T03:53:40.108Z,12.24
2022-11-09T03:56:12.895Z,12.15
2022-11-09T03:58:45.000Z,12.15
2022-11-09T04:01:17.152Z,12.15
2022-11-09T04:03:49.490Z,12.21
2022-11-09T04:06:21.550Z,12.10
2022-11-09T04:08:54.185Z,12.11
2022-11-09T04:11:26.462Z,12.01
2022-11-09T04:13:58.721Z,12.08
2022-11-09T04:16:31.161Z,12.21
2022-11-09T04:19:03.153Z,12.22
2022-11-09T04:21:35.216Z,12.16
2022-11-09T04:24:07.851Z,12.18
2022-11-09T04:26:40.354Z,12.16
2022-11-09T04:29:13.883Z,12.12
2022-11-09T04:31:46.067Z,12.11
2022-11-09T04:34:18.556Z,12.13
2022-11-09T04:36:50.937Z,12.10
2022-11-09T04:39:23.173Z,12.18
2022-11-09T04:41:55.191Z,12.19
2022-11-09T04:44:29.210Z,12.15
2022-11-09T04:47:01.732Z,12.12
2022-11-09T04:49:33.942Z,12.06
2022-11-09T04:52:07.068Z,12.05
2022-11-09T04:54:39.647Z,12.17
2022-11-09T04:57:12.207Z,12.01
2022-11-09T04:59:44.220Z,12.15
2022-11-09T05:02:16.796Z,12.12
2022-11-09T05:04:49.837Z,12.10
2022-11-09T05:07:21.857Z,12.17
2022-11-09T05:09:54.208Z,12.07
2022-11-09T05:12:27.680Z,12.10
2022-11-09T05:15:00.513Z,12.17
2022-11-09T05:17:32.679Z,12.16
2022-11-09T05:20:04.976Z,11.96
2022-11-09T05:22:57.727Z,12.16
2022-11-09T05:25:30.060Z,12.05
2022-11-09T05:28:02.092Z,12.07
2022-11-09T05:30:34.185Z,12.11
2022-11-09T05:33:06.376Z,12.11
2022-11-09T05:35:38.841Z,12.00
2022-11-09T05:38:11.494Z,11.96
2022-11-09T05:40:43.591Z,12.01
2022-11-09T05:43:15.764Z,12.05
2022-11-09T05:45:48.551Z,12.04
2022-11-09T05:48:21.752Z,11.95
2022-11-09T05:50:53.748Z,11.81
2022-11-09T05:53:28.394Z,11.86
2022-11-09T05:56:05.013Z,11.82
2022-11-09T05:58:38.895Z,11.88
2022-11-09T06:01:15.232Z,11.91
2022-11-09T06:03:48.887Z,11.97
2022-11-09T06:06:21.531Z,11.93
2022-11-09T06:08:53.670Z,11.94
2022-11-09T06:11:25.708Z,11.92
2022-11-09T06:13:57.826Z,11.92
2022-11-09T06:16:30.259Z,11.94
2022-11-09T06:19:03.710Z,11.94
2022-11-09T06:21:36.026Z,11.95
2022-11-09T06:24:09.546Z,11.95
2022-11-09T06:26:42.039Z,11.94
2022-11-09T06:29:15.061Z,11.87
2022-11-09T06:31:49.269Z,11.89
2022-11-09T06:34:21.732Z,11.93
2022-11-09T06:36:55.833Z,11.91
2022-11-09T06:39:29.943Z,11.94
2022-11-09T06:42:02.350Z,11.89
2022-11-09T06:44:34.692Z,11.75
2022-11-09T06:47:07.809Z,11.87
2022-11-09T06:49:41.998Z,11.96
2022-11-09T06:52:16.648Z,11.99
2022-11-09T06:54:49.564Z,12.01
2022-11-09T06:57:21.806Z,12.05
2022-11-09T06:59:53.943Z,12.12
2022-11-09T07:02:26.136Z,12.18
2022-11-09T07:04:58.506Z,12.16
2022-11-09T07:07:30.729Z,12.24
2022-11-09T07:10:02.815Z,12.02
2022-11-09T07:12:35.725Z,11.97
2022-11-09T07:15:09.235Z,12.06
2022-11-09T07:17:41.808Z,12.01
2022-11-09T07:20:15.293Z,11.94
2022-11-09T07:22:50.055Z,11.94
2022-11-09T07:25:22.681Z,12.16
2022-11-09T07:27:55.008Z,12.24
2022-11-09T07:30:27.724Z,12.25
2022-11-09T07:33:09.584Z,12.34
2022-11-09T07:35:42.589Z,12.33
2022-11-09T07:38:15.802Z,12.43
2022-11-09T07:40:48.450Z,12.48
2022-11-09T07:43:20.745Z,12.46
2022-11-09T07:45:56.436Z,12.35
2022-11-09T07:48:28.818Z,12.51
2022-11-09T07:51:03.626Z,12.53
2022-11-09T07:53:37.151Z,12.66
2022-11-09T07:56:10.301Z,12.59
2022-11-09T07:58:42.833Z,12.67
2022-11-09T08:01:15.130Z,12.76
2022-11-09T08:03:47.177Z,12.71
2022-11-09T08:06:19.255Z,12.67
2022-11-09T08:08:51.828Z,12.80
2022-11-09T08:11:24.653Z,12.91
2022-11-09T08:13:56.930Z,12.84
2022-11-09T08:16:34.874Z,12.97
2022-11-09T08:25:18.164Z,12.83
2022-11-09T08:27:51.045Z,12.81
2022-11-09T08:30:24.257Z,12.82
2022-11-09T08:32:56.734Z,12.73
2022-11-09T08:35:29.503Z,12.85
2022-11-09T08:38:04.579Z,12.83
2022-11-09T08:40:36.587Z,12.87
2022-11-09T08:43:09.854Z,12.94
2022-11-09T08:45:42.688Z,13.00
2022-11-09T08:48:15.392Z,12.96
2022-11-09T08:50:47.430Z,13.07
2022-11-09T08:53:19.620Z,13.16
2022-11-09T08:55:52.553Z,13.10
2022-11-09T08:58:25.077Z,13.16
2022-11-09T09:00:57.084Z,13.21
2022-11-09T09:03:29.361Z,13.27
2022-11-09T09:06:05.904Z,13.31
2022-11-09T09:08:38.380Z,13.24
2022-11-09T09:11:10.530Z,13.25
2022-11-09T09:13:43.689Z,13.17
2022-11-09T09:16:17.603Z,13.12
2022-11-09T09:18:51.627Z,13.04
2022-11-09T09:21:23.584Z,13.08
2022-11-09T09:23:56.769Z,13.11
2022-11-09T09:26:28.885Z,13.08
2022-11-09T09:29:01.404Z,13.17
2022-11-09T09:31:33.580Z,13.09
2022-11-09T09:34:05.841Z,13.11
2022-11-09T09:36:42.048Z,13.22
2022-11-09T09:39:17.264Z,13.16
2022-11-09T09:41:54.239Z,13.21
2022-11-09T09:44:33.010Z,13.31
2022-11-09T09:47:13.444Z,13.25
2022-11-09T09:49:48.885Z,13.23
2022-11-09T09:52:26.249Z,13.26
2022-11-09T09:55:04.624Z,13.33
2022-11-09T09:57:41.924Z,13.34
2022-11-09T10:00:23.186Z,13.44
2022-11-09T10:02:56.078Z,13.32
2022-11-09T10:05:38.750Z,13.33
2022-11-09T10:08:16.484Z,13.39
2022-11-09T10:10:57.068Z,13.50
2022-11-09T10:14:01.741Z,13.60
2022-11-09T10:16:42.226Z,13.61
2022-11-09T10:19:31.709Z,13.63
2022-11-09T10:22:10.230Z,13.76
2022-11-09T10:25:20.693Z,13.83
2022-11-09T10:27:50.676Z,13.95
2022-11-09T10:30:24.539Z,14.04
2022-11-09T10:32:59.253Z,13.99
2022-11-09T10:35:35.610Z,14.00
2022-11-09T10:38:10.428Z,14.06
2022-11-09T10:40:50.368Z,14.18
2022-11-09T10:43:40.796Z,14.17
2022-11-09T10:46:30.999Z,14.38
2022-11-09T10:49:23.767Z,14.52
2022-11-09T10:52:44.204Z,14.62
2022-11-09T10:55:37.466Z,14.62
2022-11-09T10:58:35.797Z,14.40
2022-11-09T11:01:37.032Z,14.50
2022-11-09T11:04:28.732Z,14.56
2022-11-09T11:07:22.991Z,14.58
2022-11-09T11:10:19.082Z,14.65
2022-11-09T11:13:29.559Z,14.58
2022-11-09T11:16:28.684Z,14.45
2022-11-09T11:19:37.570Z,14.45
2022-11-09T11:22:28.210Z,14.63
2022-11-09T11:25:22.703Z,14.69
2022-11-09T11:28:22.291Z,14.75
2022-11-09T11:31:16.163Z,14.65
2022-11-09T11:34:26.658Z,14.70
2022-11-09T11:37:37.901Z,14.67
2022-11-09T11:40:35.915Z,14.67
2022-11-09T11:43:37.374Z,14.64
2022-11-09T11:46:35.422Z,14.68
2022-11-09T11:49:44.305Z,14.72
2022-11-09T11:52:48.509Z,14.88
2022-11-09T11:55:58.008Z,14.89
2022-11-09T11:59:11.716Z,14.90
2022-11-09T12:02:20.195Z,14.94
2022-11-09T12:05:41.074Z,15.04
2022-11-09T12:08:42.666Z,15.11
2022-11-09T12:11:44.817Z,15.00
2022-11-09T12:14:50.574Z,15.03
2022-11-09T12:17:49.525Z,14.96
2022-11-09T12:20:49.360Z,14.97
2022-11-09T12:24:04.349Z,15.04
2022-11-09T12:27:31.138Z,15.09
2022-11-09T12:30:24.101Z,14.99
2022-11-09T12:33:23.442Z,15.04
2022-11-09T12:36:22.451Z,15.05
2022-11-09T12:39:21.615Z,15.00
2022-11-09T12:42:19.732Z,15.00
2022-11-09T12:45:23.960Z,14.91
2022-11-09T12:48:22.147Z,15.00
2022-11-09T12:51:12.966Z,14.88
2022-11-09T12:54:10.066Z,14.91
2022-11-09T12:57:04.038Z,14.94
2022-11-09T12:59:56.510Z,14.92
2022-11-09T13:02:56.038Z,14.71
2022-11-09T13:05:48.743Z,14.74
2022-11-09T13:08:40.638Z,14.74
2022-11-09T13:11:38.839Z,14.70
2022-11-09T13:14:42.126Z,14.74
2022-11-09T13:18:02.789Z,14.74
2022-11-09T13:20:56.534Z,14.78
2022-11-09T13:24:00.508Z,14.78
2022-11-09T13:27:01.032Z,14.78
2022-11-09T13:29:56.673Z,14.79
2022-11-09T13:33:20.788Z,14.75
2022-11-09T13:36:23.430Z,14.77
2022-11-09T13:39:39.146Z,14.77
2022-11-09T13:42:32.563Z,14.74
2022-11-09T13:45:33.486Z,14.72
2022-11-09T13:48:34.731Z,14.69
2022-11-09T13:51:40.028Z,14.61
2022-11-09T13:54:35.191Z,14.59
2022-11-09T13:57:27.139Z,14.59
2022-11-09T14:00:24.362Z,14.54
2022-11-09T14:03:24.289Z,14.52
2022-11-09T14:06:15.457Z,14.43
2022-11-09T14:09:06.919Z,14.47
2022-11-09T14:12:18.265Z,14.43
2022-11-09T14:15:19.570Z,14.36
2022-11-09T14:18:19.591Z,14.29
2022-11-09T14:21:25.828Z,14.18
2022-11-09T14:24:19.503Z,14.22
2022-11-09T14:27:19.620Z,14.15
2022-11-09T14:30:20.491Z,14.18
2022-11-09T14:33:25.101Z,14.02
2022-11-09T14:36:16.043Z,14.02
2022-11-09T14:39:15.867Z,14.11
2022-11-09T14:42:08.779Z,14.11
2022-11-09T14:44:59.374Z,14.16
2022-11-09T14:47:55.914Z,14.27
2022-11-09T14:50:47.207Z,14.24
2022-11-09T14:53:39.746Z,14.12
2022-11-09T14:56:33.987Z,14.11
2022-11-09T14:59:29.431Z,14.04
2022-11-09T15:02:22.122Z,14.03
2022-11-09T15:05:39.100Z,14.00
2022-11-09T15:08:30.221Z,14.05
2022-11-09T15:11:21.611Z,14.07
2022-11-09T15:14:29.307Z,14.17
2022-11-09T15:17:31.383Z,14.23
2022-11-09T15:20:35.015Z,14.27
2022-11-09T15:23:39.723Z,14.27
2022-11-09T15:26:37.754Z,14.28
2022-11-09T15:29:38.651Z,14.25
2022-11-09T15:32:33.886Z,14.25
2022-11-09T15:35:26.506Z,14.21
2022-11-09T15:41:18.187Z,14.22
2022-11-09T15:44:15.527Z,14.15
2022-11-09T15:47:22.308Z,14.09
2022-11-09T15:50:17.807Z,13.95
2022-11-09T15:53:09.943Z,13.88
2022-11-09T15:56:02.291Z,13.83
2022-11-09T15:58:53.804Z,13.77
2022-11-09T16:01:45.065Z,13.67
2022-11-09T16:04:36.157Z,13.61
2022-11-09T16:07:28.040Z,13.54
2022-11-09T16:10:23.860Z,13.48
2022-11-09T16:13:14.458Z,13.46
2022-11-09T16:16:08.880Z,13.40
2022-11-09T16:19:03.727Z,13.36
2022-11-09T16:21:56.866Z,13.33
2022-11-09T16:24:48.469Z,13.31
2022-11-09T16:27:50.674Z,13.24
2022-11-09T16:30:46.678Z,13.19
2022-11-09T16:33:39.215Z,13.15
2022-11-09T16:36:34.567Z,13.11
2022-11-09T16:39:34.042Z,13.09
2022-11-09T16:42:26.619Z,13.08
2022-11-09T16:45:20.277Z,13.07
2022-11-09T16:48:16.553Z,13.00
2022-11-09T16:51:09.129Z,12.96
2022-11-09T16:54:00.391Z,12.98
2022-11-09T16:56:53.646Z,12.96
2022-11-09T16:59:45.909Z,12.91
2022-11-09T17:02:40.136Z,12.93
2022-11-09T17:05:34.580Z,12.89
2022-11-09T17:08:25.092Z,12.81
2022-11-09T17:11:17.562Z,12.81
2022-11-09T17:14:09.398Z,12.85
2022-11-09T17:17:01.306Z,12.79
2022-11-09T17:19:52.653Z,12.84
2022-11-09T17:22:46.424Z,12.80
2022-11-09T17:25:39.822Z,12.73
2022-11-09T17:28:31.220Z,12.62
2022-11-09T17:31:26.626Z,12.58
2022-11-09T17:34:17.871Z,12.56
2022-11-09T17:37:09.450Z,12.44
2022-11-09T17:40:00.568Z,12.55
2022-11-09T17:42:52.498Z,12.54
2022-11-09T17:45:45.981Z,12.49
2022-11-09T17:48:38.284Z,12.46
2022-11-09T17:51:30.393Z,12.44
2022-11-09T17:54:22.511Z,12.47
2022-11-09T17:57:13.561Z,12.37
2022-11-09T18:00:06.524Z,12.43
2022-11-09T18:02:59.186Z,12.53
2022-11-09T18:06:50.018Z,12.55
2022-11-09T18:09:42.668Z,12.50
2022-11-09T18:12:35.209Z,12.53
2022-11-09T18:15:26.615Z,12.60
2022-11-09T18:18:18.612Z,12.60
2022-11-09T18:21:14.587Z,12.62
2022-11-09T18:34:28.668Z,12.92
2022-11-09T18:37:20.670Z,12.66
2022-11-09T18:40:16.680Z,12.61
2022-11-09T18:43:08.879Z,12.70
2022-11-09T18:46:04.173Z,12.60
2022-11-09T18:48:55.409Z,12.69
2022-11-09T18:51:47.331Z,12.75
2022-11-09T18:54:38.450Z,12.69
2022-11-09T18:57:29.665Z,12.54
2022-11-09T19:00:23.575Z,12.61
2022-11-09T19:03:18.033Z,12.71
2022-11-09T19:06:15.270Z,12.72
2022-11-09T19:09:25.553Z,12.75
2022-11-09T19:12:16.722Z,12.65
2022-11-09T19:15:10.743Z,12.67
2022-11-09T19:18:01.269Z,12.68
2022-11-09T19:20:52.474Z,12.72
2022-11-09T19:23:44.277Z,12.60
2022-11-09T19:26:39.228Z,12.58
2022-11-09T19:29:29.456Z,12.53
2022-11-09T19:32:20.605Z,12.63
2022-11-09T19:35:12.607Z,12.67
2022-11-09T19:38:06.479Z,12.59
2022-11-09T19:40:58.525Z,12.51
2022-11-09T19:43:54.889Z,12.53
2022-11-09T19:46:46.774Z,12.55
2022-11-09T19:49:37.546Z,12.46
2022-11-09T19:52:28.809Z,12.47
2022-11-09T19:55:20.671Z,12.43
2022-11-09T19:58:11.402Z,12.33
2022-11-09T20:01:07.602Z,12.36
2022-11-09T20:04:00.440Z,12.37
2022-11-09T20:06:51.369Z,12.16
2022-11-09T20:09:42.988Z,12.22
2022-11-09T20:12:51.216Z,12.36
2022-11-09T20:15:42.549Z,12.24
2022-11-09T20:18:40.331Z,12.30
2022-11-09T20:21:31.675Z,12.34
2022-11-09T20:24:22.331Z,12.36
2022-11-09T20:27:14.689Z,12.36
2022-11-09T20:30:08.271Z,12.36
2022-11-09T20:32:59.778Z,12.38
2022-11-09T20:35:55.939Z,12.34
2022-11-09T20:38:49.459Z,12.22
2022-11-09T20:41:41.983Z,12.31
2022-11-09T20:44:33.126Z,12.28
2022-11-09T20:47:49.078Z,12.31
2022-11-09T20:50:36.874Z,12.27
2022-11-09T20:53:27.901Z,12.19
2022-11-09T20:56:21.957Z,12.20
2022-11-09T20:59:13.328Z,12.15
2022-11-09T21:02:04.961Z,12.11
2022-11-09T21:04:56.449Z,12.11
2022-11-09T21:07:48.000Z,12.05
2022-11-09T21:10:39.815Z,12.06
2022-11-09T21:13:31.952Z,12.04
2022-11-09T21:16:25.027Z,12.02
2022-11-09T21:19:16.716Z,12.00
2022-11-09T21:22:08.120Z,11.96
2022-11-09T21:25:17.293Z,11.96
2022-11-09T21:28:35.283Z,11.95
2022-11-09T21:31:26.259Z,11.92
2022-11-09T21:34:17.827Z,11.90
2022-11-09T21:37:10.024Z,11.89
2022-11-09T21:40:03.150Z,11.88
2022-11-09T21:42:56.321Z,11.86
2022-11-09T21:45:55.125Z,11.81
2022-11-09T21:48:52.963Z,11.81
2022-11-09T21:51:44.721Z,11.76
2022-11-09T21:54:36.822Z,11.74
2022-11-09T21:57:30.227Z,11.72
2022-11-09T22:00:21.832Z,11.70
2022-11-09T22:03:14.368Z,11.64
2022-11-09T22:06:05.815Z,11.58
2022-11-09T22:08:57.612Z,11.56
2022-11-09T22:12:06.160Z,11.66
2022-11-09T22:15:15.042Z,11.74
2022-11-09T22:18:06.722Z,11.69
2022-11-09T22:20:58.872Z,11.71
2022-11-09T22:23:50.911Z,11.76
2022-11-09T22:26:42.917Z,11.53
2022-11-09T22:29:34.111Z,11.81
2022-11-09T22:32:25.614Z,11.79
2022-11-09T22:35:19.574Z,11.74
2022-11-09T22:38:10.783Z,11.64
2022-11-09T22:41:05.538Z,11.75
2022-11-09T22:43:57.803Z,11.57
2022-11-09T22:46:48.912Z,11.73
2022-11-09T22:49:39.967Z,11.81
2022-11-09T22:52:31.040Z,11.93
2022-11-09T22:55:21.654Z,11.94
2022-11-09T22:58:12.605Z,11.99
2022-11-09T23:01:14.472Z,11.93
2022-11-09T23:04:05.425Z,11.99
2022-11-09T23:06:57.782Z,11.95
2022-11-09T23:09:48.376Z,11.90
2022-11-09T23:12:39.367Z,11.96
2022-11-09T23:15:30.736Z,11.97
2022-11-09T23:18:39.168Z,11.94
2022-11-09T23:21:33.002Z,11.99
2022-11-09T23:24:38.389Z,12.06
2022-11-09T23:27:33.093Z,11.84
2022-11-09T23:30:25.712Z,11.94
2022-11-09T23:33:16.785Z,12.00
2022-11-09T23:36:12.943Z,12.08
2022-11-09T23:39:04.161Z,12.01
2022-11-09T23:41:55.612Z,12.02
2022-11-09T23:44:46.942Z,12.01
2022-11-09T23:47:37.879Z,12.03
2022-11-09T23:50:30.956Z,11.98
2022-11-09T23:53:22.142Z,11.99
2022-11-09T23:56:14.095Z,11.90
2022-11-09T23:59:04.828Z,11.96
